Fort Worth, TX (76101)

7:25 PM CDT on March 24, 2017 (GMT -0500)
Near Southside | | Change Station
Active Advisory: Fire Weather Warning

Elev 673 ft 32.74 °N, 97.33 °W | Updated 35 seconds ago

Clear
Clear
78.9 °F
Feels Like 78 °F
N
8.0
Wind Variable Wind from SSW
Gusts 13.0 mph

Today
High -- | Low -- °F
--% Chance of Precip.
Yesterday
High -- | Low -- °F
Precip. -- in
Pressure 29.73 in
Visibility 10.0 miles
Clouds Clear
Heat Index 78 °F
Dew Point 34 °F
Humidity 20%
Rainfall 0.39 in
Snow Depth Not available.
7:27 AM 7:43 PM
Waning Crescent, 12% visible
METAR KFTW 242353Z 23013G29KT 10SM CLR 27/M01 A2975 RMK AO2 PK WND 22032/2328 SLP067 T02671011 10283 20206 53001 $
Pressure 29.73 in
Visibility 10.0 miles
Clouds Clear
Heat Index 78 °F
Dew Point 34 °F
Humidity 20%
Rainfall 0.39 in
Snow Depth Not available.
7:27 AM 7:43 PM
Waning Crescent, 12% visible
METAR KFTW 242353Z 23013G29KT 10SM CLR 27/M01 A2975 RMK AO2 PK WND 22032/2328 SLP067 T02671011 10283 20206 53001 $

Get Your Daily Forecast Email!

Thanks for signing up!

Be on the lookout for a verification email in your inbox.

You'll start receiving severe weather alerts in your inbox..

×

10-Day Weather Forecast

Almanac

Astronomy

Mar. 24, 2017 Rise Set
Actual Time
Civil Twilight
Nautical Twilight
Astronomical Twilight
Moon
Length of Visible Light
Length of Day
Tomorrow will be .
, % of the Moon is Illuminated

Today's Extremes

State Highs State Lows

Community

WunderPhotos

Upload Photos

1,962,540 photos uploaded!

WunderBlog® & News

Nearby

Air Quality

  Air Quality AQ Index Pollutant
Not available.

Snow Depth

Station Depth Elevation

Earthquake Activity

City Distance Mag. Time & Date
Minimum magnitude displayed is 2.5.

Earthquake Activity

City Distance Mag. Time & Date
Minimum magnitude displayed is 2.5.

Coastal Water Temperatures

Place Temperature

Stations

Nearby Weather Stations

Station Location Temp. Windchill Dew Point Humidity Wind Precip. Elev Updated Type
                   

Watches & Warnings

Fire Weather Warning
Issued: 6:54 PM CDT Mar. 24, 2017 – National Weather Service

... Red flag warning now in effect until 8 PM CDT this evening for
strong and gusty winds and low humidity values for locations
along and west of a line from Goldthwaite to Fort Worth to
Gainesville...

* timing... through 8 PM CDT Friday.

* Winds... southwest winds 20 to 30 mph with higher gusts.

* Rh... humidity will remain or drop to between 15 and 20%.

* Impacts... any fires that develop will likely spread rapidly.
Outdoor burning is not recommended.

Precautionary/preparedness actions...

A red flag warning means that extreme fire weather conditions are
either occurring now... or will shortly. A combination of strong
winds... low relative humidity... and dry vegetation can contribute
to extreme fire behavior. Avoid all outside burning and welding
today. Do not toss lit cigarette Butts outside. Report wild fires
to the nearest Fire Department or law enforcement office.



24-Bain